createdAt,value
2022-12-27T00:01:56.369Z,3.10
2022-12-27T00:04:24.958Z,3.10
2022-12-27T00:06:53.533Z,3.10
2022-12-27T00:09:22.455Z,3.10
2022-12-27T00:11:57.976Z,3.10
2022-12-27T00:14:29.186Z,3.10
2022-12-27T00:16:57.767Z,3.10
2022-12-27T00:19:26.456Z,3.10
2022-12-27T00:21:55.047Z,3.20
2022-12-27T00:24:23.676Z,3.30
2022-12-27T00:26:53.702Z,3.30
2022-12-27T00:29:22.469Z,3.30
2022-12-27T00:31:51.127Z,3.30
2022-12-27T00:34:19.818Z,3.30
2022-12-27T00:36:48.452Z,3.20
2022-12-27T00:39:17.070Z,3.20
2022-12-27T00:41:45.812Z,3.20
2022-12-27T00:44:15.890Z,3.20
2022-12-27T00:46:44.549Z,3.30
2022-12-27T00:49:13.305Z,3.20
2022-12-27T00:52:00.977Z,3.20
2022-12-27T00:55:24.571Z,3.30
2022-12-27T00:57:53.119Z,3.30
2022-12-27T01:00:23.396Z,3.30
2022-12-27T01:02:52.159Z,3.30
2022-12-27T01:05:22.042Z,3.40
2022-12-27T01:07:50.636Z,3.30
2022-12-27T01:10:20.364Z,3.40
2022-12-27T01:12:48.948Z,3.40
2022-12-27T01:15:17.568Z,3.40
2022-12-27T01:17:47.609Z,3.40
2022-12-27T01:20:16.363Z,3.40
2022-12-27T01:22:44.993Z,3.40
2022-12-27T01:25:13.624Z,3.40
2022-12-27T01:27:42.219Z,3.40
2022-12-27T01:30:12.128Z,3.40
2022-12-27T01:32:40.793Z,3.60
2022-12-27T01:35:11.084Z,3.70
2022-12-27T01:37:39.706Z,3.80
2022-12-27T01:40:09.643Z,3.90
2022-12-27T01:42:52.291Z,3.90
2022-12-27T01:45:22.606Z,3.80
2022-12-27T01:47:55.947Z,3.80
2022-12-27T01:50:32.699Z,3.90
2022-12-27T01:53:07.854Z,3.90
2022-12-27T01:55:40.699Z,3.80
2022-12-27T01:58:13.988Z,3.70
2022-12-27T02:00:45.649Z,3.60
2022-12-27T02:03:19.227Z,3.50
2022-12-27T02:05:50.782Z,3.50
2022-12-27T02:08:29.853Z,3.50
2022-12-27T02:10:59.733Z,3.70
2022-12-27T02:13:30.293Z,3.80
2022-12-27T02:15:58.846Z,3.90
2022-12-27T02:18:27.510Z,3.90
2022-12-27T02:21:21.092Z,4.00
2022-12-27T02:24:06.992Z,4.10
2022-12-27T02:26:47.761Z,4.10
2022-12-27T02:29:27.905Z,4.00
2022-12-27T02:32:02.360Z,4.00
2022-12-27T02:34:35.529Z,3.90
2022-12-27T02:37:09.363Z,3.80
2022-12-27T02:39:41.151Z,3.80
2022-12-27T02:42:29.034Z,3.90
2022-12-27T02:45:21.940Z,3.90
2022-12-27T02:48:08.674Z,3.80
2022-12-27T02:51:08.570Z,3.70
2022-12-27T02:53:50.319Z,3.70
2022-12-27T02:56:46.209Z,3.60
2022-12-27T02:59:33.475Z,3.60
2022-12-27T03:02:31.869Z,3.60
2022-12-27T03:05:12.617Z,3.60
2022-12-27T03:07:49.793Z,3.60
2022-12-27T03:10:44.866Z,3.60
2022-12-27T03:13:49.571Z,3.60
2022-12-27T03:16:24.736Z,3.60
2022-12-27T03:19:12.566Z,3.70
2022-12-27T03:22:03.536Z,3.70
2022-12-27T03:24:52.681Z,3.70
2022-12-27T03:27:28.626Z,3.70
2022-12-27T03:30:17.243Z,3.60
2022-12-27T03:33:09.122Z,3.60
2022-12-27T03:35:44.039Z,3.50
2022-12-27T03:38:14.274Z,3.50
2022-12-27T03:41:03.690Z,3.50
2022-12-27T03:43:33.479Z,3.40
2022-12-27T03:46:29.594Z,3.40
2022-12-27T03:49:08.231Z,3.40
2022-12-27T03:51:42.937Z,3.40
2022-12-27T03:54:16.778Z,3.30
2022-12-27T03:56:45.416Z,3.40
2022-12-27T03:59:14.357Z,3.40
2022-12-27T04:01:43.031Z,3.30
2022-12-27T04:04:11.768Z,3.30
2022-12-27T04:06:41.732Z,3.40
2022-12-27T04:09:29.288Z,3.40
2022-12-27T04:12:15.380Z,3.40
2022-12-27T04:15:01.642Z,3.40
2022-12-27T04:17:47.744Z,3.50
2022-12-27T04:20:34.384Z,3.50
2022-12-27T04:23:22.160Z,3.40
2022-12-27T04:26:08.345Z,3.40
2022-12-27T04:28:54.722Z,3.30
2022-12-27T04:31:40.918Z,3.30
2022-12-27T04:34:26.940Z,3.30
2022-12-27T04:36:55.608Z,3.20
2022-12-27T04:39:25.813Z,3.20
2022-12-27T04:42:11.659Z,3.10
2022-12-27T04:45:00.013Z,3.10
2022-12-27T04:47:46.170Z,3.10
2022-12-27T04:50:47.422Z,3.00
2022-12-27T04:53:32.052Z,3.00
2022-12-27T04:56:02.272Z,3.00
2022-12-27T04:58:31.739Z,2.90
2022-12-27T05:01:28.574Z,2.90
2022-12-27T05:03:57.473Z,3.00
2022-12-27T05:06:26.036Z,2.90
2022-12-27T05:09:12.101Z,2.90
2022-12-27T05:11:58.572Z,2.90
2022-12-27T05:14:27.204Z,2.90
2022-12-27T05:16:55.831Z,3.00
2022-12-27T05:19:24.506Z,3.00
2022-12-27T05:22:06.985Z,3.00
2022-12-27T05:24:52.859Z,3.00
2022-12-27T05:27:22.827Z,3.00
2022-12-27T05:29:51.482Z,3.00
2022-12-27T05:32:20.151Z,3.00
2022-12-27T05:34:48.805Z,2.90
2022-12-27T05:37:17.400Z,2.90
2022-12-27T05:39:46.025Z,2.90
2022-12-27T05:42:14.676Z,2.90
2022-12-27T05:44:44.656Z,2.90
2022-12-27T05:47:13.246Z,2.90
2022-12-27T05:49:41.817Z,2.90
2022-12-27T05:52:10.380Z,2.80
2022-12-27T05:54:39.109Z,2.80
2022-12-27T05:57:07.717Z,2.80
2022-12-27T05:59:36.288Z,2.80
2022-12-27T06:02:06.453Z,2.90
2022-12-27T06:04:35.282Z,2.90
2022-12-27T06:07:03.958Z,3.00
2022-12-27T06:09:32.786Z,3.00
2022-12-27T06:12:01.579Z,3.10
2022-12-27T06:14:30.488Z,3.00
2022-12-27T06:16:59.180Z,3.00
2022-12-27T06:19:29.144Z,3.00
2022-12-27T06:21:57.803Z,3.00
2022-12-27T06:24:26.626Z,3.00
2022-12-27T06:26:55.241Z,3.10
2022-12-27T06:29:24.859Z,3.10
2022-12-27T06:31:53.775Z,3.00
2022-12-27T06:34:22.507Z,3.00
2022-12-27T06:36:52.477Z,3.00
2022-12-27T06:39:21.549Z,3.00
2022-12-27T06:41:55.438Z,2.90
2022-12-27T06:44:24.104Z,2.90
2022-12-27T06:46:52.757Z,2.90
2022-12-27T06:49:21.423Z,2.90
2022-12-27T06:51:55.681Z,2.90
2022-12-27T06:54:30.242Z,2.90
2022-12-27T06:56:58.956Z,2.90
2022-12-27T06:59:27.893Z,2.80
2022-12-27T07:01:57.004Z,2.90
2022-12-27T07:04:25.887Z,2.80
2022-12-27T07:06:54.568Z,2.90
2022-12-27T07:09:23.128Z,2.90
2022-12-27T07:11:54.049Z,2.90
2022-12-27T07:14:22.691Z,2.90
2022-12-27T07:16:51.436Z,2.80
2022-12-27T07:19:20.121Z,2.90
2022-12-27T07:21:48.830Z,2.90
2022-12-27T07:24:17.496Z,2.90
2022-12-27T07:26:46.254Z,2.90
2022-12-27T07:29:16.347Z,2.90
2022-12-27T07:31:45.138Z,2.80
2022-12-27T07:34:13.948Z,2.80
2022-12-27T07:36:42.790Z,2.90
2022-12-27T07:39:11.919Z,2.80
2022-12-27T07:41:40.550Z,2.80
2022-12-27T07:44:10.798Z,2.80
2022-12-27T07:46:40.979Z,2.90
2022-12-27T07:49:17.432Z,2.90
2022-12-27T07:51:46.606Z,2.90
2022-12-27T07:54:15.250Z,2.90
2022-12-27T07:56:43.952Z,2.80
2022-12-27T07:59:14.052Z,2.80
2022-12-27T08:01:57.935Z,2.80
2022-12-27T08:04:29.849Z,2.80
2022-12-27T08:07:04.085Z,2.80
2022-12-27T08:09:36.929Z,2.80
2022-12-27T08:12:06.125Z,2.80
2022-12-27T08:14:34.731Z,2.80
2022-12-27T08:17:08.665Z,2.80
2022-12-27T08:19:37.378Z,2.90
2022-12-27T08:22:06.342Z,2.90
2022-12-27T08:24:34.950Z,3.00
2022-12-27T08:27:06.375Z,3.00
2022-12-27T08:29:35.183Z,3.00
2022-12-27T08:32:05.520Z,3.10
2022-12-27T08:34:34.738Z,3.10
2022-12-27T08:37:03.674Z,3.10
2022-12-27T08:39:32.531Z,3.10
2022-12-27T08:42:01.535Z,3.10
2022-12-27T08:44:30.190Z,3.20
2022-12-27T08:46:59.552Z,3.20
2022-12-27T08:49:29.638Z,3.20
2022-12-27T08:51:58.188Z,3.30
2022-12-27T08:54:27.256Z,3.30
2022-12-27T08:56:55.920Z,3.30
2022-12-27T08:59:24.559Z,3.40
2022-12-27T09:01:53.384Z,3.40
2022-12-27T09:04:22.713Z,3.40
2022-12-27T09:06:52.731Z,3.40
2022-12-27T09:09:21.333Z,3.50
2022-12-27T09:11:50.044Z,3.50
2022-12-27T09:14:18.799Z,3.50
2022-12-27T09:16:47.386Z,3.50
2022-12-27T09:19:16.238Z,3.50
2022-12-27T09:21:45.055Z,3.60
2022-12-27T09:24:15.910Z,3.60
2022-12-27T09:26:44.723Z,3.70
2022-12-27T09:29:13.386Z,3.70
2022-12-27T09:31:42.043Z,3.70
2022-12-27T09:34:11.526Z,3.80
2022-12-27T09:36:41.459Z,3.80
2022-12-27T09:39:12.253Z,3.80
2022-12-27T09:42:44.981Z,3.90
2022-12-27T09:44:51.011Z,3.90
2022-12-27T09:47:26.529Z,3.90
2022-12-27T09:49:59.624Z,4.00
2022-12-27T09:52:34.188Z,4.00
2022-12-27T09:55:08.755Z,4.00
2022-12-27T09:57:41.941Z,4.10
2022-12-27T10:00:17.450Z,4.10
2022-12-27T10:02:46.633Z,4.10
2022-12-27T10:05:23.276Z,4.20
2022-12-27T10:08:10.514Z,4.20
2022-12-27T10:10:44.615Z,4.20
2022-12-27T10:13:28.058Z,4.30
2022-12-27T10:16:09.622Z,4.40
2022-12-27T10:18:48.445Z,4.40
2022-12-27T10:21:22.606Z,4.50
2022-12-27T10:23:57.129Z,4.50
2022-12-27T10:26:25.986Z,4.60
2022-12-27T10:29:02.000Z,4.60
2022-12-27T10:31:32.998Z,4.70
2022-12-27T10:34:06.182Z,4.60
2022-12-27T10:36:38.319Z,4.70
2022-12-27T10:39:13.267Z,4.80
2022-12-27T10:41:52.735Z,4.90
2022-12-27T10:44:24.737Z,4.90
2022-12-27T10:46:56.213Z,4.90
2022-12-27T10:49:27.647Z,4.90
2022-12-27T10:51:59.251Z,5.00
2022-12-27T10:54:30.153Z,5.10
2022-12-27T10:57:18.224Z,5.00
2022-12-27T11:00:19.687Z,5.00
2022-12-27T11:02:52.924Z,5.20
2022-12-27T11:05:24.346Z,5.40
2022-12-27T11:07:53.320Z,5.50
2022-12-27T11:10:24.577Z,5.60
2022-12-27T11:12:58.454Z,5.80
2022-12-27T11:15:30.007Z,6.00
2022-12-27T11:18:01.965Z,6.00
2022-12-27T11:20:36.364Z,6.10
2022-12-27T11:23:12.314Z,6.20
2022-12-27T11:25:53.320Z,6.20
2022-12-27T11:28:32.628Z,6.30
2022-12-27T11:31:05.985Z,6.50
2022-12-27T11:33:39.389Z,6.60
2022-12-27T11:36:10.841Z,6.70
2022-12-27T11:38:40.916Z,6.80
2022-12-27T11:41:13.671Z,7.00
2022-12-27T11:43:48.754Z,7.20
2022-12-27T11:46:29.005Z,7.30
2022-12-27T11:48:59.499Z,7.50
2022-12-27T11:51:49.691Z,7.50
2022-12-27T11:54:41.633Z,7.60
2022-12-27T11:57:20.840Z,7.60
2022-12-27T12:00:01.216Z,7.50
2022-12-27T12:02:45.938Z,7.60
2022-12-27T12:05:44.085Z,7.60
2022-12-27T12:08:28.422Z,7.60
2022-12-27T12:11:08.624Z,7.50
2022-12-27T12:14:16.730Z,7.50
2022-12-27T12:17:01.502Z,7.60
2022-12-27T12:20:01.239Z,7.70
2022-12-27T12:22:44.262Z,7.80
2022-12-27T12:25:50.182Z,7.70
2022-12-27T12:28:59.550Z,7.60
2022-12-27T12:31:51.991Z,7.50
2022-12-27T12:34:39.388Z,7.40
2022-12-27T12:37:18.833Z,7.30
2022-12-27T12:40:01.436Z,7.30
2022-12-27T12:42:39.479Z,7.30
2022-12-27T12:45:30.040Z,7.40
2022-12-27T12:48:15.525Z,7.40
2022-12-27T12:51:08.396Z,7.50
2022-12-27T12:53:50.100Z,7.60
2022-12-27T12:56:43.851Z,7.60
2022-12-27T12:59:30.322Z,7.80
2022-12-27T13:02:19.694Z,7.90
2022-12-27T13:05:12.137Z,8.00
2022-12-27T13:08:07.824Z,8.10
2022-12-27T13:10:52.813Z,8.20
2022-12-27T13:13:30.866Z,8.10
2022-12-27T13:16:14.436Z,8.10
2022-12-27T13:18:52.561Z,8.00
2022-12-27T13:21:35.658Z,8.00
2022-12-27T13:24:13.438Z,7.90
2022-12-27T13:26:50.566Z,8.00
2022-12-27T13:29:47.463Z,8.00
2022-12-27T13:32:29.166Z,8.00
2022-12-27T13:35:08.900Z,7.90
2022-12-27T13:37:49.969Z,7.80
2022-12-27T13:41:04.297Z,7.70
2022-12-27T13:43:53.208Z,7.50
2022-12-27T13:46:44.486Z,7.40
2022-12-27T13:49:36.756Z,7.40
2022-12-27T13:52:17.987Z,7.40
2022-12-27T13:55:03.639Z,7.30
2022-12-27T13:58:12.153Z,7.30
2022-12-27T14:00:47.760Z,7.30
2022-12-27T14:03:46.366Z,7.20
2022-12-27T14:06:46.489Z,7.10
2022-12-27T14:09:44.370Z,7.10
2022-12-27T14:12:37.912Z,7.10
2022-12-27T14:15:14.275Z,7.10
2022-12-27T14:17:50.413Z,7.10
2022-12-27T14:20:37.193Z,7.10
2022-12-27T14:23:40.556Z,7.10
2022-12-27T14:26:36.196Z,7.10
2022-12-27T14:29:43.728Z,7.10
2022-12-27T14:32:43.552Z,7.10
2022-12-27T14:35:37.031Z,7.00
2022-12-27T14:38:39.141Z,7.00
2022-12-27T14:41:32.696Z,7.00
2022-12-27T14:44:42.957Z,7.00
2022-12-27T14:47:43.322Z,6.90
2022-12-27T14:50:49.869Z,6.90
2022-12-27T14:54:04.083Z,6.90
2022-12-27T14:56:36.853Z,6.80
2022-12-27T14:59:25.167Z,6.80
2022-12-27T15:02:06.411Z,6.80
2022-12-27T15:04:47.821Z,6.80
2022-12-27T15:07:51.231Z,6.70
2022-12-27T15:10:31.774Z,6.70
2022-12-27T15:13:13.048Z,6.70
2022-12-27T15:15:55.004Z,6.70
2022-12-27T15:18:44.461Z,6.70
2022-12-27T15:21:41.528Z,6.60
2022-12-27T15:24:26.784Z,6.60
2022-12-27T15:27:02.823Z,6.60
2022-12-27T15:29:43.077Z,6.60
2022-12-27T15:32:24.965Z,6.60
2022-12-27T15:35:10.040Z,6.60
2022-12-27T15:38:01.448Z,6.50
2022-12-27T15:41:01.374Z,6.50
2022-12-27T15:43:56.087Z,6.50
2022-12-27T15:46:56.227Z,6.50
2022-12-27T15:49:51.855Z,6.40
2022-12-27T15:52:30.185Z,6.40
2022-12-27T15:55:15.887Z,6.40
2022-12-27T15:58:03.211Z,6.30
2022-12-27T16:00:34.527Z,6.30
2022-12-27T16:03:05.314Z,6.30
2022-12-27T16:05:49.060Z,6.30
2022-12-27T16:08:37.785Z,6.30
2022-12-27T16:11:11.997Z,6.30
2022-12-27T16:13:48.267Z,6.30
2022-12-27T16:16:53.531Z,6.30
2022-12-27T16:19:53.846Z,6.30
2022-12-27T16:22:28.441Z,6.30
2022-12-27T16:24:58.184Z,6.30
2022-12-27T16:27:34.316Z,6.40
2022-12-27T16:30:05.218Z,6.40
2022-12-27T16:32:34.945Z,6.40
2022-12-27T16:35:16.198Z,6.40
2022-12-27T16:37:52.761Z,6.40
2022-12-27T16:40:43.109Z,6.50
2022-12-27T16:43:43.534Z,6.50
2022-12-27T16:46:55.800Z,6.60
2022-12-27T16:49:47.341Z,6.50
2022-12-27T16:52:41.811Z,6.60
2022-12-27T16:55:30.792Z,6.50
2022-12-27T16:58:21.307Z,6.60
2022-12-27T17:00:52.373Z,6.60
2022-12-27T17:03:46.036Z,6.60
2022-12-27T17:06:51.860Z,6.60
2022-12-27T17:09:48.028Z,6.50
2022-12-27T17:12:21.713Z,6.60
2022-12-27T17:14:55.888Z,6.60
2022-12-27T17:17:25.483Z,6.50
2022-12-27T17:20:00.262Z,6.50
2022-12-27T17:22:34.468Z,6.60
2022-12-27T17:25:16.172Z,6.50
2022-12-27T17:28:09.102Z,6.50
2022-12-27T17:30:49.251Z,6.50
2022-12-27T17:33:41.061Z,6.60
2022-12-27T17:36:22.876Z,6.50
2022-12-27T17:39:19.544Z,6.50
2022-12-27T17:42:18.477Z,6.60
2022-12-27T17:45:07.332Z,6.70
2022-12-27T17:47:54.430Z,6.70
2022-12-27T17:50:26.429Z,6.70
2022-12-27T17:53:35.833Z,6.70
2022-12-27T17:56:32.982Z,6.60
2022-12-27T17:59:11.430Z,6.60
2022-12-27T18:01:46.165Z,6.60
2022-12-27T18:04:23.513Z,6.60
2022-12-27T18:06:56.415Z,6.60
2022-12-27T18:09:35.576Z,6.70
2022-12-27T18:12:09.721Z,6.70
2022-12-27T18:14:38.632Z,6.70
2022-12-27T18:17:07.540Z,6.70
2022-12-27T18:19:36.408Z,6.70
2022-12-27T18:22:05.286Z,6.70
2022-12-27T18:24:40.766Z,6.70
2022-12-27T18:27:19.733Z,6.70
2022-12-27T18:29:48.521Z,6.70
2022-12-27T18:32:18.905Z,6.70
2022-12-27T18:34:51.854Z,6.60
2022-12-27T18:37:23.461Z,6.50
2022-12-27T18:39:56.036Z,6.40
2022-12-27T18:42:31.882Z,6.40
2022-12-27T18:45:03.361Z,6.30
2022-12-27T18:47:36.381Z,6.30
2022-12-27T18:50:07.113Z,6.20
2022-12-27T18:52:39.375Z,6.20
2022-12-27T18:55:17.899Z,6.20
2022-12-27T18:57:47.236Z,6.10
2022-12-27T19:00:22.857Z,6.10
2022-12-27T19:02:53.011Z,6.10
2022-12-27T19:05:28.440Z,6.10
2022-12-27T19:08:02.047Z,6.10
2022-12-27T19:10:33.621Z,6.00
2022-12-27T19:13:03.667Z,6.00
2022-12-27T19:15:41.455Z,6.00
2022-12-27T19:18:23.589Z,6.00
2022-12-27T19:20:57.653Z,6.00
2022-12-27T19:23:30.595Z,6.00
2022-12-27T19:26:04.740Z,6.00
2022-12-27T19:28:34.812Z,6.00
2022-12-27T19:31:45.912Z,5.90
2022-12-27T19:34:18.415Z,6.00
2022-12-27T19:36:48.418Z,5.90
2022-12-27T19:39:22.615Z,5.90
2022-12-27T19:41:53.443Z,5.80
2022-12-27T19:44:30.891Z,5.80
2022-12-27T19:46:59.596Z,5.80
2022-12-27T19:49:44.914Z,5.80
2022-12-27T19:52:18.918Z,5.70
2022-12-27T19:54:47.897Z,5.70
2022-12-27T19:57:18.208Z,5.70
2022-12-27T19:59:47.035Z,5.60
2022-12-27T20:02:15.881Z,5.60
2022-12-27T20:04:44.737Z,5.60
2022-12-27T20:07:21.468Z,5.60
2022-12-27T20:09:50.628Z,5.60
2022-12-27T20:12:20.726Z,5.50
2022-12-27T20:14:49.586Z,5.50
2022-12-27T20:17:18.251Z,5.50
2022-12-27T20:19:47.045Z,5.50
2022-12-27T20:22:15.648Z,5.50
2022-12-27T20:24:46.217Z,5.50
2022-12-27T20:27:14.885Z,5.50
2022-12-27T20:29:45.102Z,5.40
2022-12-27T20:32:13.837Z,5.50
2022-12-27T20:34:42.560Z,5.50
2022-12-27T20:37:11.407Z,5.40
2022-12-27T20:39:40.023Z,5.50
2022-12-27T20:42:08.687Z,5.50
2022-12-27T20:44:40.094Z,5.50
2022-12-27T20:47:10.145Z,5.50
2022-12-27T20:49:39.521Z,5.50
2022-12-27T20:52:08.128Z,5.50
2022-12-27T20:54:37.190Z,5.50
2022-12-27T20:57:05.835Z,5.50
2022-12-27T20:59:34.664Z,5.60
2022-12-27T21:02:03.453Z,5.50
2022-12-27T21:04:33.643Z,5.50
2022-12-27T21:07:02.489Z,5.50
2022-12-27T21:09:31.587Z,5.60
2022-12-27T21:12:00.169Z,5.60
2022-12-27T21:14:29.023Z,5.60
2022-12-27T21:16:57.742Z,5.70
2022-12-27T21:19:26.660Z,5.70
2022-12-27T21:21:56.739Z,5.70
2022-12-27T21:24:25.551Z,5.70
2022-12-27T21:26:56.509Z,5.70
2022-12-27T21:29:25.559Z,5.70
2022-12-27T21:31:54.550Z,5.70
2022-12-27T21:34:23.204Z,5.80
2022-12-27T21:36:52.966Z,5.80
2022-12-27T21:39:22.943Z,5.80
2022-12-27T21:41:51.481Z,5.80
2022-12-27T21:44:22.027Z,5.90
2022-12-27T21:46:50.652Z,5.90
2022-12-27T21:49:20.041Z,5.90
2022-12-27T21:51:48.852Z,5.90
2022-12-27T21:54:17.689Z,5.90
2022-12-27T21:56:47.722Z,5.80
2022-12-27T21:59:16.306Z,5.80
2022-12-27T22:01:51.407Z,5.80
2022-12-27T22:04:21.966Z,5.80
2022-12-27T22:06:51.273Z,5.80
2022-12-27T22:09:20.103Z,5.80
2022-12-27T22:11:50.185Z,5.80
2022-12-27T22:14:24.937Z,5.80
2022-12-27T22:16:54.423Z,5.90
2022-12-27T22:19:23.056Z,5.90
2022-12-27T22:21:51.744Z,5.90
2022-12-27T22:24:20.401Z,5.90
2022-12-27T22:26:50.623Z,5.90
2022-12-27T22:29:19.601Z,5.90
2022-12-27T22:31:48.324Z,5.90
2022-12-27T22:34:17.046Z,5.90
2022-12-27T22:36:45.632Z,5.90
2022-12-27T22:39:14.252Z,5.90
2022-12-27T22:41:42.903Z,5.90
2022-12-27T22:44:14.662Z,5.90
2022-12-27T22:47:15.671Z,6.00
2022-12-27T22:49:32.992Z,6.00
2022-12-27T22:52:56.629Z,6.00
2022-12-27T22:55:25.405Z,6.00
2022-12-27T22:57:54.129Z,6.00
2022-12-27T23:00:24.402Z,6.00
2022-12-27T23:02:53.550Z,6.10
2022-12-27T23:05:22.252Z,6.10
2022-12-27T23:08:05.654Z,6.10
2022-12-27T23:10:36.069Z,6.20
2022-12-27T23:13:04.835Z,6.20
2022-12-27T23:15:34.897Z,6.20
2022-12-27T23:18:03.561Z,6.10
2022-12-27T23:20:35.197Z,6.10
2022-12-27T23:23:03.774Z,6.10
2022-12-27T23:25:32.349Z,6.10
2022-12-27T23:28:00.953Z,6.10
2022-12-27T23:30:29.536Z,6.00
2022-12-27T23:32:59.673Z,6.10
2022-12-27T23:35:28.298Z,6.10
2022-12-27T23:37:57.048Z,6.00
2022-12-27T23:40:25.646Z,6.00
2022-12-27T23:42:54.266Z,6.10
2022-12-27T23:45:22.826Z,6.00
2022-12-27T23:47:52.184Z,6.00
2022-12-27T23:50:22.192Z,6.00
2022-12-27T23:52:50.805Z,6.00
2022-12-27T23:55:19.549Z,6.00
2022-12-27T23:57:48.133Z,6.00
